Data for 03/24/2007

Time Sea-Level Adjusted Pressure Absolute Pressure Temperature Relative Humidity Dew Point   
(mb) (inHg) (mb) (inHg) (C) (F) (%) (C) (F)
00:05 1018 30.06 848 25.04 4.4 39.8 54 -4 24.7
00:10 1018 30.06 848 25.04 4 39.3 56 -3.8 25.1
00:15 1018 30.06 848 25.04 3.6 38.5 58 -4 24.8
00:20 1018 30.06 848 25.04 3.9 39 55 -4.4 24.1
00:25 1018 30.06 848 25.04 4.3 39.7 53 -4.4 24.1
00:30 1018 30.06 848 25.04 4.4 39.9 53 -4.3 24.3
00:35 1018 30.06 847 25.01 4.1 39.3 55 -4.2 24.5
00:40 1018 30.06 847 25.01 4 39.1 55 -4.3 24.3
00:45 1018 30.06 847 25.01 3.8 38.9 55 -4.4 24
00:50 1018 30.06 847 25.01 4.2 39.5 52 -4.9 23.2
00:55 1018 30.06 847 25.01 4.8 40.6 51 -4.5 23.9
01:00 1018 30.06 847 25.01 5 41.1 49 -4.8 23.4
01:05 1018 30.06 847 25.01 4.5 40.2 53 -4.3 24.2
01:10 1018 30.06 847 25.01 3.9 39.1 54 -4.5 23.8
01:15 1018 30.06 847 25.01 4 39.1 52 -5 23.1
01:20 1018 30.06 847 25.01 4.3 39.8 51 -5 22.9
01:25 1018 30.06 847 25.01 4.5 40.1 51 -4.9 23.2
01:30 1018 30.06 847 25.01 4.2 39.5 52 -4.8 23.4
01:35 1018 30.06 847 25.01 4 39.2 53 -4.6 23.7
01:40 1018 30.06 847 25.01 3.7 38.7 54 -4.8 23.4
01:45 1018 30.06 847 25.01 3.4 38.2 55 -4.7 23.6
01:50 1018 30.06 847 25.01 3.4 38.2 54 -5.1 22.8
01:55 1018 30.06 847 25.01 3.6 38.4 53 -5.2 22.7
02:00 1018 30.06 847 25.01 3.7 38.6 52 -5.2 22.7
02:05 1018 30.06 847 25.01 3.6 38.6 52 -5.2 22.7
02:10 1018 30.06 847 25.01 3.3 37.9 54 -5.1 22.8
02:15 1017 30.03 847 25.01 3 37.4 55 -5.2 22.7
02:20 1017 30.03 846 24.98 3 37.4 54 -5.3 22.4
02:25 1017 30.03 846 24.98 3 37.4 54 -5.4 22.2
02:30 1017 30.03 846 24.98 3.2 37.7 53 -5.6 22
02:35 1017 30.03 846 24.98 2.9 37.2 55 -5.2 22.6
02:40 1017 30.03 846 24.98 2.8 37 55 -5.4 22.3
02:45 1017 30.03 846 24.98 2.9 37.2 55 -5.2 22.6
02:50 1017 30.03 846 24.98 2.9 37.3 55 -5.3 22.5
02:55 1017 30.03 847 25.01 3.2 37.8 55 -5 23
03:00 1017 30.03 847 25.01 3.5 38.3 53 -5.2 22.7
03:05 1017 30.03 847 25.01 3.8 38.8 52 -5.1 22.8
03:10 1017 30.03 847 25.01 3.8 38.8 53 -5.1 22.9
03:15 1018 30.06 847 25.01 3.5 38.2 53 -5.1 22.8
03:20 1018 30.06 847 25.01 3.4 38.1 53 -5.3 22.4
03:25 1018 30.06 847 25.01 3.7 38.7 51 -5.6 21.9
03:30 1018 30.06 847 25.01 3.8 38.9 48 -6.2 20.9
03:35 1018 30.06 847 25.01 4 39.3 47 -6.3 20.6
03:40 1018 30.06 847 25.01 4.1 39.5 46 -6.6 20.2
03:45 1018 30.06 847 25.01 4.5 40.1 40 -7.8 17.9
03:50 1018 30.06 847 25.01 4.5 40.1 40 -7.9 17.8
03:55 1018 30.06 847 25.01 3.7 38.6 46 -6.9 19.6
04:00 1018 30.06 847 25.01 2.5 36.5 50 -6.8 19.7
04:05 1018 30.06 847 25.01 2 35.5 49 -7.5 18.4
04:10 1017 30.03 847 25.01 2.1 35.8 49 -7.7 18.2
04:15 1017 30.03 846 24.98 2 35.5 49 -7.7 18.1
04:20 1017 30.03 846 24.98 1.8 35.3 50 -7.6 18.3
04:25 1017 30.03 846 24.98 1.7 35 49 -7.8 17.9
04:30 1017 30.03 846 24.98 1.7 35 49 -7.8 18
04:35 1017 30.03 846 24.98 2 35.7 45 -8.7 16.4
04:40 1017 30.03 846 24.98 2.7 36.9 45 -8 17.6
04:45 1017 30.03 846 24.98 2.8 37 47 -7.6 18.4
04:50 1017 30.03 846 24.98 2.5 36.6 50 -6.9 19.6
04:55 1017 30.03 846 24.98 2.3 36.1 52 -6.6 20.1
05:00 1017 30.03 846 24.98 2.4 36.3 52 -6.5 20.3
05:05 1017 30.03 846 24.98 2.3 36.1 53 -6.4 20.4
05:10 1017 30.03 846 24.98 2.1 35.7 53 -6.5 20.3
05:15 1017 30.03 846 24.98 2.1 35.7 52 -6.8 19.8
05:20 1017 30.03 846 24.98 1.9 35.5 54 -6.5 20.3
05:25 1017 30.03 846 24.98 2 35.5 52 -6.9 19.5
05:30 1017 30.03 846 24.98 2.4 36.3 49 -7.3 18.9
05:35 1017 30.03 846 24.98 2.7 36.8 50 -6.8 19.7
05:40 1017 30.03 846 24.98 2.5 36.6 52 -6.5 20.4
05:45 1017 30.03 846 24.98 2.2 36 53 -6.4 20.4
05:50 1017 30.03 846 24.98 2.2 35.9 52 -6.6 20.2
05:55 1017 30.03 846 24.98 1.9 35.4 52 -6.9 19.6
06:00 1017 30.03 846 24.98 1.9 35.4 49 -7.6 18.3
06:05 1017 30.03 846 24.98 1.8 35.2 47 -8.3 17.1
06:10 1017 30.03 846 24.98 2.3 36.2 46 -8.2 17.3
06:15 1017 30.03 846 24.98 2.7 36.9 46 -7.8 17.9
06:20 1017 30.03 846 24.98 3.1 37.6 44 -8.1 17.4
06:25 1017 30.03 847 25.01 2.8 37.1 43 -8.6 16.6
06:30 1017 30.03 847 25.01 2.7 36.9 40 -9.7 14.6
06:35 1017 30.03 847 25.01 2.1 35.9 42 -9.6 14.7
06:40 1017 30.03 847 25.01 1.5 34.6 44 -9.5 14.8
06:45 1018 30.06 847 25.01 1.3 34.3 44 -9.8 14.4
06:50 1018 30.06 847 25.01 1.1 33.9 45 -9.5 14.9
06:55 1018 30.06 847 25.01 1 33.8 46 -9.4 15.1
07:00 1018 30.06 847 25.01 0.6 33.1 48 -9.2 15.4
07:05 1018 30.06 847 25.01 0.3 32.6 48 -9.5 14.8
07:10 1018 30.06 847 25.01 0.6 33.1 44 -10.4 13.4
07:15 1018 30.06 847 25.01 1.2 34.2 42 -10.5 13.1
07:20 1018 30.06 847 25.01 1.7 35.1 46 -8.7 16.3
07:25 1018 30.06 847 25.01 2.1 35.7 48 -7.9 17.7
07:30 1018 30.06 847 25.01 1.7 35 50 -7.7 18.1
07:35 1018 30.06 847 25.01 1.4 34.6 50 -8 17.6
07:40 1018 30.06 847 25.01 1.6 34.9 49 -8 17.6
07:45 1018 30.06 847 25.01 1.8 35.2 48 -8.1 17.4
07:50 1018 30.06 847 25.01 1.8 35.2 48 -8.2 17.2
07:55 1018 30.06 847 25.01 1.8 35.3 47 -8.4 17
08:00 1018 30.06 847 25.01 1.9 35.5 48 -7.8 17.9
08:05 1018 30.06 847 25.01 2.2 36 48 -7.6 18.3
08:10 1018 30.06 847 25.01 2.4 36.3 48 -7.4 18.7
08:15 1018 30.06 847 25.01 2.5 36.5 49 -7.3 18.9
08:20 1018 30.06 847 25.01 2.7 36.8 48 -7.3 18.8
08:25 1018 30.06 847 25.01 2.9 37.2 47 -7.4 18.6
08:30 1018 30.06 847 25.01 3.1 37.6 46 -7.5 18.5
08:35 1018 30.06 847 25.01 3.4 38.1 46 -7.2 19.1
08:40 1018 30.06 847 25.01 3.7 38.6 45 -7.3 18.9
08:45 1018 30.06 847 25.01 4 39.2 43 -7.5 18.6
08:50 1018 30.06 847 25.01 4.6 40.2 42 -7.2 19
08:55 1018 30.06 847 25.01 5.3 41.6 39 -7.5 18.5
09:00 1018 30.06 847 25.01 6.2 43.1 37 -7.6 18.3
09:05 1018 30.06 847 25.01 6.6 43.8 36 -7.5 18.6
09:10 1018 30.06 847 25.01 6.8 44.2 37 -7 19.3
09:15 1018 30.06 847 25.01 6.9 44.3 36 -7.3 18.9
09:20 1018 30.06 847 25.01 6.9 44.4 37 -6.8 19.7
09:25 1018 30.06 847 25.01 7.2 44.9 36 -7 19.5
09:30 1018 30.06 847 25.01 7.3 45.1 35 -7.1 19.2
09:35 1018 30.06 847 25.01 7.6 45.7 34 -7.4 18.7
09:40 1017 30.03 847 25.01 8.2 46.8 33 -7.2 19.1
09:45 1017 30.03 847 25.01 8.4 47.2 32 -7.3 18.9
09:50 1017 30.03 847 25.01 8.9 48.1 31 -7.3 18.9
09:55 1017 30.03 847 25.01 9.4 48.9 30 -7.3 18.9
10:00 1017 30.03 847 25.01 9.6 49.4 30 -7.1 19.2
10:05 1017 30.03 847 25.01 10.2 50.3 28 -7.4 18.7
10:10 1017 30.03 847 25.01 10.2 50.3 27 -7.8 18
10:15 1017 30.03 847 25.01 10.5 50.9 27 -7.5 18.5
10:20 1017 30.03 847 25.01 11.1 51.9 27 -7.4 18.7
10:25 1017 30.03 847 25.01 11.2 52.1 27 -7 19.4
10:30 1017 30.03 846 24.98 11.4 52.4 26 -7.2 19
10:35 1017 30.03 846 24.98 11.7 53 26 -7 19.3
10:40 1017 30.03 846 24.98 12.3 54.2 25 -7.1 19.2
10:45 1017 30.03 846 24.98 12.7 54.9 24 -7.4 18.7
10:50 1017 30.03 846 24.98 12.8 55.1 23 -7.8 18
10:55 1017 30.03 846 24.98 13 55.4 22 -8 17.6
11:00 1017 30.03 846 24.98 13.2 55.8 21 -8.3 17
11:05 1017 30.03 846 24.98 13.4 56 20 -9.1 15.6
11:10 1017 30.03 846 24.98 14.1 57.4 19 -9.2 15.4
11:15 1017 30.03 846 24.98 14.3 57.8 24 -5.8 21.6
11:20 1017 30.03 846 24.98 13.4 56.2 28 -4.9 23.2
11:25 1017 30.03 846 24.98 13.2 55.7 29 -4.5 23.9
11:30 1017 30.03 846 24.98 12.9 55.3 30 -4.3 24.3
11:35 1017 30.03 846 24.98 12.8 55.1 29 -4.6 23.7
11:40 1017 30.03 846 24.98 13.5 56.3 28 -4.6 23.6
11:45 1017 30.03 846 24.98 14.1 57.3 27 -4.6 23.6
11:50 1017 30.03 846 24.98 14.5 58.1 26 -4.6 23.8
11:55 1017 30.03 846 24.98 14.7 58.4 25 -5.1 22.8
12:00 1017 30.03 846 24.98 14.7 58.5 25 -5 23
12:05 1017 30.03 846 24.98 13.9 56.9 26 -5.5 22.1
12:10 1017 30.03 846 24.98 14 57.2 25 -5.4 22.2
12:15 1017 30.03 846 24.98 14.7 58.5 23 -6 21.3
12:20 1017 30.03 846 24.98 14.8 58.6 22 -6.4 20.5
12:25 1017 30.03 846 24.98 15.6 60.1 18 -8.2 17.2
12:30 1017 30.03 846 24.98 15.5 59.8 16 -10.5 13.1
12:35 1017 30.03 846 24.98 15.9 60.7 14 -11.1 12
12:40 1017 30.03 846 24.98 16.8 62.2 16 -9.1 15.6
12:45 1016 30 846 24.98 17.3 63.1 15 -9.2 15.5
12:50 1016 30 846 24.98 17.7 63.9 14 -9.7 14.5
12:55 1016 30 846 24.98 17.7 63.8 15 -9.5 14.8
13:00 1016 30 845 24.95 16.7 62 15 -10.2 13.6
13:05 1016 30 845 24.95 17.2 62.9 13 -11.3 11.7
13:10 1016 30 845 24.95 18.2 64.7 12 -12 10.5
13:15 1016 30 845 24.95 18.2 64.8 12 -11.6 11.1
13:20 1016 30 845 24.95 18.1 64.6 12 -11.6 11.2
13:25 1016 30 845 24.95 18.3 64.9 13 -10.7 12.7
13:30 1016 30 845 24.95 19.2 66.5 11 -11.5 11.2
13:35 1016 30 845 24.95 18.8 65.8 12 -11.2 11.9
13:40 1016 30 845 24.95 17.9 64.3 13 -11.2 11.9
13:45 1016 30 845 24.95 18.6 65.6 12 -10.8 12.6
13:50 1016 30 845 24.95 19 66.2 13 -10.4 13.3
13:55 1015 29.97 845 24.95 19 66.3 12 -10.4 13.2
14:00 1015 29.97 845 24.95 19.1 66.5 13 -10.2 13.6
14:05 1015 29.97 844 24.92 19.8 67.6 12 -9.9 14.1
14:10 1015 29.97 844 24.92 19.8 67.6 12 -10.3 13.5
14:15 1015 29.97 844 24.92 19.9 67.8 11 -11.3 11.6
14:20 1015 29.97 844 24.92 19.5 67.1 12 -10.9 12.5
14:25 1015 29.97 844 24.92 19.6 67.2 11 -11.5 11.3
14:30 1015 29.97 844 24.92 19.1 66.3 12 -10.7 12.7
14:35 1015 29.97 844 24.92 19.2 66.6 13 -10 14
14:40 1015 29.97 844 24.92 19.6 67.3 12 -10.4 13.4
14:45 1014 29.94 844 24.92 20.4 68.8 11 -10.4 13.3
14:50 1014 29.94 843 24.89 20.6 69 12 -9.5 14.9
14:55 1014 29.94 843 24.89 19.8 67.7 12 -10.3 13.5
15:00 1014 29.94 843 24.89 19.7 67.4 12 -10 14
15:05 1014 29.94 843 24.89 20.1 68.1 12 -10.3 13.4
15:10 1014 29.94 843 24.89 20.9 69.6 12 -9.4 15.1
15:15 1014 29.94 843 24.89 20.4 68.7 12 -10.1 13.8
15:20 1014 29.94 843 24.89 19.7 67.4 13 -9.8 14.3
15:25 1014 29.94 843 24.89 20.6 69.1 12 -9.5 14.8
15:30 1014 29.94 843 24.89 20.8 69.5 12 -9.3 15.2
15:35 1013 29.91 843 24.89 19.5 67 13 -9.5 14.8
15:40 1013 29.91 843 24.89 19.8 67.6 13 -9.3 15.3
15:45 1013 29.91 843 24.89 20.4 68.7 13 -9.2 15.4
15:50 1013 29.91 843 24.89 20.7 69.2 13 -8.5 16.7
15:55 1013 29.91 842 24.86 20.5 68.8 13 -8.5 16.7
16:00 1013 29.91 842 24.86 20.8 69.4 13 -8.6 16.4
16:05 1013 29.91 842 24.86 21.2 70.1 14 -7.2 19
16:10 1013 29.91 842 24.86 21.1 69.9 14 -7.6 18.3
16:15 1013 29.91 842 24.86 20.8 69.5 14 -7.6 18.3
16:20 1013 29.91 842 24.86 20.9 69.7 14 -7.8 18
16:25 1013 29.91 842 24.86 20.9 69.6 14 -7.6 18.3
16:30 1013 29.91 842 24.86 20.6 69.1 14 -7.8 18
16:35 1013 29.91 842 24.86 20.2 68.4 14 -8 17.7
16:40 1013 29.91 842 24.86 20.5 68.9 14 -7.8 18
16:45 1013 29.91 842 24.86 20.5 68.9 14 -7.7 18.1
16:50 1013 29.91 842 24.86 21.2 70.1 14 -7.5 18.5
16:55 1013 29.91 842 24.86 21 69.8 14 -7.6 18.3
17:00 1013 29.91 842 24.86 21.4 70.4 13 -7.6 18.3
17:05 1013 29.91 842 24.86 21.6 70.8 13 -7.6 18.4
17:10 1013 29.91 842 24.86 21.1 70.1 13 -8.1 17.4
17:15 1013 29.91 842 24.86 21.2 70.1 13 -8.2 17.2
17:20 1013 29.91 842 24.86 21.1 69.9 13 -8.2 17.2
17:25 1013 29.91 842 24.86 21 69.8 13 -8.5 16.7
17:30 1012 29.88 842 24.86 20.7 69.3 13 -8.2 17.2
17:35 1012 29.88 842 24.86 20.9 69.5 13 -8.8 16.1
17:40 1012 29.88 842 24.86 20.8 69.5 13 -8.5 16.7
17:45 1012 29.88 842 24.86 20.8 69.4 13 -8.7 16.4
17:50 1012 29.88 842 24.86 20.7 69.2 13 -8.8 16.1
17:55 1012 29.88 842 24.86 20.5 69 13 -9.1 15.7
18:00 1012 29.88 842 24.86 20.5 68.8 13 -8.8 16.1
18:05 1012 29.88 842 24.86 20.6 69 13 -8.8 16.1
18:10 1012 29.88 842 24.86 20.4 68.8 13 -8.8 16.1
18:15 1012 29.88 842 24.86 20.3 68.5 13 -9 15.7
18:20 1012 29.88 842 24.86 20.2 68.3 13 -8.9 16.1
18:25 1012 29.88 841 24.83 19.9 67.8 13 -9.2 15.5
18:30 1012 29.88 841 24.83 19.7 67.4 13 -9.2 15.5
18:35 1012 29.88 841 24.83 19.7 67.4 14 -8.9 16
18:40 1012 29.88 841 24.83 19.5 67.1 13 -9.2 15.5
18:45 1012 29.88 841 24.83 19.1 66.3 14 -8.9 16
18:50 1012 29.88 841 24.83 18.8 65.9 15 -8.7 16.4
18:55 1012 29.88 842 24.86 18.6 65.4 15 -8.5 16.7
19:00 1012 29.88 842 24.86 18.3 65 15 -8.4 16.9
19:05 1013 29.91 842 24.86 18 64.4 16 -8.5 16.7
19:10 1013 29.91 842 24.86 17.8 64 15 -9 15.8
19:15 1013 29.91 842 24.86 17.7 63.9 15 -9 15.7
19:20 1013 29.91 842 24.86 17.7 63.8 16 -8.3 17
19:25 1013 29.91 842 24.86 17.2 62.9 18 -7.5 18.5
19:30 1013 29.91 842 24.86 16.7 62.1 18 -7.7 18.1
19:35 1013 29.91 842 24.86 16.5 61.7 18 -7.9 17.7
19:40 1013 29.91 842 24.86 16.2 61.2 18 -8.1 17.5
19:45 1013 29.91 842 24.86 16.1 61 18 -8.4 16.9
19:50 1013 29.91 842 24.86 15.7 60.3 20 -7.4 18.7
19:55 1013 29.91 842 24.86 15.2 59.4 20 -7.7 18.2
20:00 1013 29.91 842 24.86 14.8 58.6 21 -7.4 18.7
20:05 1013 29.91 842 24.86 14.3 57.7 22 -7.3 18.8
20:10 1013 29.91 842 24.86 14.1 57.3 22 -7.3 18.9
20:15 1013 29.91 842 24.86 14.1 57.4 20 -8.2 17.2
20:20 1013 29.91 842 24.86 14.6 58.2 21 -7.8 18
20:25 1013 29.91 842 24.86 14.1 57.5 22 -7 19.4
20:30 1013 29.91 842 24.86 13.6 56.4 24 -6.8 19.8
20:35 1013 29.91 842 24.86 13 55.5 25 -6.4 20.5
20:40 1013 29.91 842 24.86 12.8 55.1 25 -6.8 19.8
20:45 1013 29.91 842 24.86 12.8 55.1 26 -5.9 21.3
20:50 1013 29.91 842 24.86 12.4 54.4 24 -7.4 18.8
20:55 1013 29.91 842 24.86 12.9 55.1 25 -6.5 20.3
21:00 1013 29.91 842 24.86 12.7 54.8 27 -5.8 21.6
21:05 1013 29.91 842 24.86 12.4 54.2 27 -6.1 21
21:10 1013 29.91 842 24.86 12 53.7 28 -5.9 21.3
21:15 1013 29.91 842 24.86 11.8 53.2 28 -5.9 21.3
21:20 1013 29.91 842 24.86 12 53.5 27 -6.3 20.6
21:25 1013 29.91 842 24.86 12.1 53.7 29 -5.6 22
21:30 1013 29.91 842 24.86 12 53.5 27 -6.3 20.7
21:35 1013 29.91 842 24.86 12.4 54.4 26 -6.3 20.7
21:40 1013 29.91 842 24.86 12.5 54.5 27 -6.1 21.1
21:45 1013 29.91 842 24.86 12.4 54.4 26 -6.6 20.2
21:50 1013 29.91 842 24.86 12.2 53.9 29 -5.3 22.4
21:55 1013 29.91 842 24.86 11.5 52.6 29 -5.9 21.3
22:00 1013 29.91 842 24.86 11.8 53.2 28 -6 21.1
22:05 1013 29.91 842 24.86 11.9 53.4 29 -5.7 21.7
22:10 1013 29.91 842 24.86 12 53.5 27 -6.2 20.9
22:15 1013 29.91 842 24.86 12.2 54 27 -6.4 20.4
22:20 1013 29.91 842 24.86 12.4 54.3 26 -6.5 20.3
22:25 1013 29.91 842 24.86 12.6 54.6 26 -6.5 20.3
22:30 1013 29.91 842 24.86 12.6 54.7 26 -6.2 20.8
22:35 1013 29.91 842 24.86 12.3 54.1 27 -6.2 20.8
22:40 1013 29.91 842 24.86 11.9 53.5 28 -6 21.2
22:45 1013 29.91 842 24.86 11.6 52.8 28 -6.2 20.8
22:50 1013 29.91 842 24.86 11.4 52.6 29 -5.9 21.3
22:55 1013 29.91 842 24.86 11.4 52.4 28 -6.6 20.2
23:00 1013 29.91 842 24.86 11.6 52.8 27 -6.6 20.1
23:05 1013 29.91 842 24.86 11.6 52.8 28 -6.5 20.3
23:10 1013 29.91 842 24.86 11.7 53 27 -6.7 20
23:15 1013 29.91 842 24.86 11.6 52.8 28 -6.4 20.5
23:20 1013 29.91 842 24.86 11.4 52.6 28 -6.2 20.8
23:25 1013 29.91 842 24.86 10.8 51.4 29 -6.8 19.8
23:30 1013 29.91 842 24.86 11.1 51.9 27 -7 19.3
23:35 1013 29.91 842 24.86 11.1 51.9 30 -5.8 21.5
23:40 1013 29.91 842 24.86 10.2 50.4 30 -6.4 20.4
23:45 1013 29.91 842 24.86 10.3 50.6 29 -6.7 19.9
23:50 1013 29.91 842 24.86 10.5 50.9 29 -6.9 19.6
23:55 1013 29.91 842 24.86 10.9 51.6 28 -6.9 19.5
24:00 1013 29.91 842 24.86 10.8 51.5 29 -6.4 20.4